createdAt,value
2023-02-08T00:00:11.480Z,100.00
2023-02-08T00:04:15.920Z,100.00
2023-02-08T00:08:20.784Z,100.00
2023-02-08T00:12:25.178Z,100.00
2023-02-08T00:16:28.644Z,100.00
2023-02-08T00:20:33.443Z,100.00
2023-02-08T00:24:38.462Z,100.00
2023-02-08T00:28:43.438Z,100.00
2023-02-08T00:32:47.944Z,100.00
2023-02-08T00:36:52.657Z,100.00
2023-02-08T00:40:59.190Z,100.00
2023-02-08T00:45:03.848Z,100.00
2023-02-08T00:49:09.230Z,100.00
2023-02-08T00:53:14.193Z,100.00
2023-02-08T00:57:19.581Z,100.00
2023-02-08T01:01:24.523Z,100.00
2023-02-08T01:05:30.539Z,100.00
2023-02-08T01:09:35.396Z,100.00
2023-02-08T01:13:43.743Z,100.00
2023-02-08T01:17:48.751Z,100.00
2023-02-08T01:21:53.355Z,100.00
2023-02-08T01:25:58.225Z,100.00
2023-02-08T01:30:03.068Z,100.00
2023-02-08T01:34:09.373Z,100.00
2023-02-08T01:38:13.471Z,100.00
2023-02-08T01:42:19.612Z,100.00
2023-02-08T01:46:25.900Z,100.00
2023-02-08T01:50:36.723Z,100.00
2023-02-08T01:54:48.398Z,100.00
2023-02-08T01:58:56.417Z,100.00
2023-02-08T02:03:05.620Z,100.00
2023-02-08T02:07:10.901Z,100.00
2023-02-08T02:11:15.940Z,100.00
2023-02-08T02:15:20.261Z,100.00
2023-02-08T02:19:35.473Z,100.00
2023-02-08T02:24:15.639Z,100.00
2023-02-08T02:28:48.781Z,100.00
2023-02-08T02:33:08.521Z,100.00
2023-02-08T02:37:31.692Z,100.00
2023-02-08T02:42:04.146Z,100.00
2023-02-08T02:46:17.646Z,100.00
2023-02-08T02:50:31.030Z,100.00
2023-02-08T02:54:40.926Z,100.00
2023-02-08T02:58:46.911Z,100.00
2023-02-08T03:02:50.707Z,100.00
2023-02-08T03:07:06.852Z,100.00
2023-02-08T03:11:20.439Z,100.00
2023-02-08T03:15:31.294Z,100.00
2023-02-08T03:19:41.114Z,100.00
2023-02-08T03:23:52.804Z,100.00
2023-02-08T03:28:06.442Z,100.00
2023-02-08T03:32:13.123Z,100.00
2023-02-08T03:36:23.794Z,100.00
2023-02-08T03:40:34.854Z,100.00
2023-02-08T03:44:42.423Z,100.00
2023-02-08T03:48:51.338Z,100.00
2023-02-08T03:52:57.184Z,100.00
2023-02-08T03:57:09.554Z,100.00
2023-02-08T04:01:19.153Z,100.00
2023-02-08T04:05:24.456Z,100.00
2023-02-08T04:09:27.534Z,100.00
2023-02-08T04:13:32.557Z,100.00
2023-02-08T04:17:36.929Z,100.00
2023-02-08T04:21:41.540Z,100.00
2023-02-08T04:25:45.032Z,100.00
2023-02-08T04:29:50.300Z,100.00
2023-02-08T04:33:54.579Z,100.00
2023-02-08T04:37:58.924Z,100.00
2023-02-08T04:42:04.051Z,100.00
2023-02-08T04:46:10.863Z,100.00
2023-02-08T04:50:15.704Z,100.00
2023-02-08T04:54:20.650Z,100.00
2023-02-08T04:58:25.508Z,100.00
2023-02-08T05:02:31.708Z,100.00
2023-02-08T05:06:36.391Z,100.00
2023-02-08T05:10:45.997Z,100.00
2023-02-08T05:14:49.147Z,100.00
2023-02-08T05:18:56.448Z,100.00
2023-02-08T05:23:00.564Z,100.00
2023-02-08T05:27:04.999Z,100.00
2023-02-08T05:31:13.695Z,100.00
2023-02-08T05:35:20.259Z,100.00
2023-02-08T05:39:25.072Z,100.00
2023-02-08T05:43:29.725Z,100.00
2023-02-08T05:47:34.634Z,100.00
2023-02-08T05:51:40.723Z,100.00
2023-02-08T05:55:46.729Z,100.00
2023-02-08T05:59:51.569Z,100.00
2023-02-08T06:03:56.512Z,100.00
2023-02-08T06:08:03.093Z,100.00
2023-02-08T06:12:07.275Z,100.00
2023-02-08T06:16:11.761Z,100.00
2023-02-08T06:20:16.642Z,100.00
2023-02-08T06:24:23.039Z,100.00
2023-02-08T06:28:27.243Z,100.00
2023-02-08T06:32:30.382Z,100.00
2023-02-08T06:36:34.052Z,100.00
2023-02-08T06:40:38.527Z,100.00
2023-02-08T06:44:51.396Z,100.00
2023-02-08T06:48:59.186Z,100.00
2023-02-08T06:53:02.393Z,100.00
2023-02-08T06:57:08.457Z,100.00
2023-02-08T07:01:14.216Z,100.00
2023-02-08T07:05:17.463Z,100.00
2023-02-08T07:09:20.479Z,100.00
2023-02-08T07:13:24.817Z,100.00
2023-02-08T07:17:27.815Z,100.00
2023-02-08T07:21:30.803Z,100.00
2023-02-08T07:25:33.823Z,100.00
2023-02-08T07:29:38.904Z,100.00
2023-02-08T07:33:42.480Z,100.00
2023-02-08T07:37:45.463Z,100.00
2023-02-08T07:41:49.048Z,100.00
2023-02-08T07:45:53.426Z,100.00
2023-02-08T07:49:56.448Z,100.00
2023-02-08T07:53:59.452Z,100.00
2023-02-08T07:58:02.427Z,100.00
2023-02-08T08:02:06.843Z,100.00
2023-02-08T08:06:09.973Z,100.00
2023-02-08T08:10:13.055Z,100.00
2023-02-08T08:14:16.118Z,100.00
2023-02-08T08:18:20.610Z,100.00
2023-02-08T08:22:23.700Z,100.00
2023-02-08T08:26:26.833Z,100.00
2023-02-08T08:30:29.997Z,100.00
2023-02-08T08:34:34.447Z,100.00
2023-02-08T08:38:38.809Z,100.00
2023-02-08T08:42:41.877Z,100.00
2023-02-08T08:46:44.944Z,100.00
2023-02-08T08:50:51.500Z,100.00
2023-02-08T08:54:54.578Z,100.00
2023-02-08T08:58:57.656Z,100.00
2023-02-08T09:03:00.768Z,100.00
2023-02-08T09:07:05.436Z,100.00
2023-02-08T09:11:11.395Z,100.00
2023-02-08T09:15:14.447Z,100.00
2023-02-08T09:19:17.706Z,100.00
2023-02-08T09:23:22.337Z,100.00
2023-02-08T09:27:25.404Z,100.00
2023-02-08T09:31:30.635Z,100.00
2023-02-08T09:35:33.765Z,100.00
2023-02-08T09:39:38.215Z,100.00
2023-02-08T09:43:50.292Z,100.00
2023-02-08T09:48:01.000Z,100.00
2023-02-08T09:52:08.192Z,100.00
2023-02-08T09:56:16.666Z,100.00
2023-02-08T10:00:28.706Z,100.00
2023-02-08T10:04:38.973Z,100.00
2023-02-08T10:08:44.495Z,100.00
2023-02-08T10:12:56.660Z,100.00
2023-02-08T10:17:11.308Z,100.00
2023-02-08T10:21:35.492Z,100.00
2023-02-08T10:25:48.215Z,100.00
2023-02-08T10:30:08.757Z,100.00
2023-02-08T10:34:21.460Z,100.00
2023-02-08T10:38:37.197Z,100.00
2023-02-08T10:42:53.169Z,100.00
2023-02-08T10:47:08.903Z,100.00
2023-02-08T10:51:16.794Z,100.00
2023-02-08T10:55:21.915Z,100.00
2023-02-08T10:59:28.840Z,100.00
2023-02-08T11:03:34.255Z,96.27
2023-02-08T11:07:37.872Z,100.00
2023-02-08T11:11:42.987Z,100.00
2023-02-08T11:15:48.970Z,99.36
2023-02-08T11:19:54.160Z,94.20
2023-02-08T11:23:58.916Z,90.70
2023-02-08T11:28:02.387Z,96.75
2023-02-08T11:32:16.505Z,87.71
2023-02-08T11:36:21.174Z,84.46
2023-02-08T11:40:27.564Z,74.50
2023-02-08T11:44:33.630Z,85.00
2023-02-08T11:48:44.082Z,84.46
2023-02-08T11:52:55.964Z,75.87
2023-02-08T11:57:03.907Z,76.73
2023-02-08T12:01:18.060Z,75.40
2023-02-08T12:05:30.648Z,75.42
2023-02-08T12:10:14.951Z,78.20
2023-02-08T12:14:40.212Z,73.30
2023-02-08T12:18:57.988Z,76.81
2023-02-08T12:23:15.295Z,72.10
2023-02-08T12:27:36.336Z,72.34
2023-02-08T12:31:56.840Z,73.87
2023-02-08T12:36:21.398Z,67.13
2023-02-08T12:40:52.762Z,65.67
2023-02-08T12:45:35.761Z,57.03
2023-02-08T12:49:53.527Z,59.89
2023-02-08T12:54:00.302Z,55.13
2023-02-08T12:58:14.308Z,57.44
2023-02-08T13:02:23.267Z,57.57
2023-02-08T13:06:32.310Z,56.41
2023-02-08T13:10:40.534Z,51.52
2023-02-08T13:14:48.336Z,51.31
2023-02-08T13:18:56.331Z,53.51
2023-02-08T13:23:04.178Z,50.97
2023-02-08T13:27:08.701Z,55.74
2023-02-08T13:31:15.787Z,48.93
2023-02-08T13:35:25.143Z,49.88
2023-02-08T13:39:35.444Z,49.04
2023-02-08T13:43:43.148Z,49.29
2023-02-08T13:47:50.008Z,47.22
2023-02-08T13:51:55.370Z,46.79
2023-02-08T13:56:01.204Z,49.59
2023-02-08T14:00:24.177Z,45.60
2023-02-08T14:04:37.470Z,46.83
2023-02-08T14:08:55.190Z,46.48
2023-02-08T14:13:02.572Z,45.27
2023-02-08T14:17:21.731Z,47.00
2023-02-08T14:21:33.303Z,50.36
2023-02-08T14:25:45.005Z,48.76
2023-02-08T14:29:58.116Z,52.06
2023-02-08T14:34:01.436Z,50.53
2023-02-08T14:38:37.294Z,53.01
2023-02-08T14:42:58.157Z,53.38
2023-02-08T14:47:01.357Z,54.27
2023-02-08T14:51:20.094Z,52.16
2023-02-08T14:55:27.717Z,51.79
2023-02-08T14:59:35.741Z,51.75
2023-02-08T15:03:42.530Z,49.51
2023-02-08T15:07:50.632Z,49.29
2023-02-08T15:12:01.030Z,48.63
2023-02-08T15:16:11.680Z,49.41
2023-02-08T15:20:21.007Z,51.81
2023-02-08T15:24:29.275Z,52.49
2023-02-08T15:28:35.269Z,52.87
2023-02-08T15:32:41.775Z,53.36
2023-02-08T15:36:50.101Z,53.85
2023-02-08T15:41:07.624Z,54.95
2023-02-08T15:45:24.504Z,57.33
2023-02-08T15:49:32.535Z,59.04
2023-02-08T15:53:36.939Z,57.92
2023-02-08T15:57:44.983Z,58.69
2023-02-08T16:01:49.127Z,60.68
2023-02-08T16:05:56.917Z,61.63
2023-02-08T16:10:00.359Z,62.71
2023-02-08T16:14:05.466Z,66.30
2023-02-08T16:18:50.992Z,67.23
2023-02-08T16:23:00.594Z,74.98
2023-02-08T16:27:06.148Z,82.16
2023-02-08T16:31:09.376Z,90.00
2023-02-08T16:35:14.197Z,91.88
2023-02-08T16:39:39.153Z,95.37
2023-02-08T16:43:44.721Z,100.00
2023-02-08T16:47:51.305Z,100.00
2023-02-08T16:51:57.903Z,100.00
2023-02-08T16:56:02.377Z,100.00
2023-02-08T17:00:15.412Z,100.00
2023-02-08T17:04:18.509Z,100.00
2023-02-08T17:08:22.753Z,100.00
2023-02-08T17:12:27.164Z,100.00
2023-02-08T17:16:31.982Z,100.00
2023-02-08T17:20:36.738Z,100.00
2023-02-08T17:24:39.751Z,100.00
2023-02-08T17:28:44.625Z,100.00
2023-02-08T17:32:47.894Z,100.00
2023-02-08T17:36:50.933Z,100.00
2023-02-08T17:40:53.937Z,100.00
2023-02-08T17:44:58.959Z,100.00
2023-02-08T17:49:03.635Z,100.00
2023-02-08T17:53:06.638Z,100.00
2023-02-08T17:57:11.243Z,100.00
2023-02-08T18:01:18.337Z,100.00
2023-02-08T18:05:24.014Z,100.00
2023-02-08T18:09:27.262Z,100.00
2023-02-08T18:13:30.267Z,100.00
2023-02-08T18:17:35.033Z,100.00
2023-02-08T18:21:38.232Z,100.00
2023-02-08T18:25:42.756Z,100.00
2023-02-08T18:29:45.945Z,100.00
2023-02-08T18:33:51.472Z,100.00
2023-02-08T18:37:54.643Z,100.00
2023-02-08T18:41:57.657Z,100.00
2023-02-08T18:46:02.452Z,100.00
2023-02-08T18:50:11.569Z,100.00
2023-02-08T18:54:17.870Z,100.00
2023-02-08T18:58:20.882Z,100.00
2023-02-08T19:02:26.420Z,100.00
2023-02-08T19:06:32.570Z,100.00
2023-02-08T19:10:37.379Z,100.00
2023-02-08T19:14:40.424Z,100.00
2023-02-08T19:18:43.437Z,100.00
2023-02-08T19:22:47.842Z,100.00
2023-02-08T19:26:51.151Z,100.00
2023-02-08T19:31:03.797Z,100.00
2023-02-08T19:35:07.330Z,100.00
2023-02-08T19:39:15.633Z,100.00
2023-02-08T19:43:18.709Z,100.00
2023-02-08T19:47:43.399Z,100.00
2023-02-08T19:51:49.558Z,100.00
2023-02-08T19:55:57.915Z,100.00
2023-02-08T20:00:02.888Z,100.00
2023-02-08T20:04:15.645Z,100.00
2023-02-08T20:08:20.583Z,100.00
2023-02-08T20:12:24.994Z,100.00
2023-02-08T20:16:31.680Z,100.00
2023-02-08T20:20:35.794Z,100.00
2023-02-08T20:24:39.066Z,100.00
2023-02-08T20:28:45.471Z,100.00
2023-02-08T20:32:48.626Z,100.00
2023-02-08T20:37:06.424Z,100.00
2023-02-08T20:41:13.285Z,100.00
2023-02-08T20:45:17.865Z,100.00
2023-02-08T20:49:25.340Z,100.00
2023-02-08T20:53:28.408Z,100.00
2023-02-08T20:57:31.651Z,100.00
2023-02-08T21:01:38.688Z,100.00
2023-02-08T21:05:41.761Z,100.00
2023-02-08T21:09:45.668Z,100.00
2023-02-08T21:13:49.211Z,100.00
2023-02-08T21:17:53.743Z,100.00
2023-02-08T21:21:59.198Z,100.00
2023-02-08T21:26:03.995Z,100.00
2023-02-08T21:30:07.620Z,100.00
2023-02-08T21:34:13.514Z,100.00
2023-02-08T21:38:16.710Z,100.00
2023-02-08T21:42:19.853Z,100.00
2023-02-08T21:46:24.885Z,100.00
2023-02-08T21:50:46.978Z,100.00
2023-02-08T21:54:53.586Z,100.00
2023-02-08T21:58:56.822Z,100.00
2023-02-08T22:02:59.981Z,100.00
2023-02-08T22:07:05.630Z,100.00
2023-02-08T22:11:09.041Z,100.00
2023-02-08T22:15:13.955Z,100.00
2023-02-08T22:19:17.319Z,100.00
2023-02-08T22:23:21.893Z,100.00
2023-02-08T22:27:25.041Z,100.00
2023-02-08T22:31:28.215Z,100.00
2023-02-08T22:35:31.330Z,100.00
2023-02-08T22:39:35.941Z,100.00
2023-02-08T22:43:39.036Z,100.00
2023-02-08T22:47:42.120Z,100.00
2023-02-08T22:51:45.120Z,100.00
2023-02-08T22:55:56.129Z,100.00
2023-02-08T22:59:59.200Z,100.00
2023-02-08T23:04:02.205Z,100.00
2023-02-08T23:08:05.275Z,100.00
2023-02-08T23:12:09.756Z,100.00
2023-02-08T23:16:14.415Z,100.00
2023-02-08T23:20:17.832Z,100.00
2023-02-08T23:24:20.862Z,100.00
2023-02-08T23:28:25.280Z,100.00
2023-02-08T23:32:28.297Z,100.00
2023-02-08T23:36:31.415Z,100.00
2023-02-08T23:40:34.436Z,100.00
2023-02-08T23:44:38.858Z,100.00
2023-02-08T23:48:42.028Z,100.00
2023-02-08T23:52:45.009Z,100.00
2023-02-08T23:56:47.999Z,100.00
